Time;durP1;ratioP1;P1;durP2;ratioP2;P2;SDS_P1;SDS_P2;PMS_P1;PMS_P2;Temp;Humidity;BMP_temperature;BMP_pressure;BME280_temperature;BME280_humidity;BME280_pressure;Samples;Min_cycle;Max_cycle;Signal;HPM_P1;HPM_P2
2022/09/29 00:00:50;;;;;;;;;7.00;6.00;;;;;13.72;100.00;99806.66;5042220;28;45433;-80
2022/09/29 00:03:16;;;;;;;;;6.67;6.67;;;;;13.80;100.00;99820.22;5042725;28;45279;-79
2022/09/29 00:05:51;;;;;;;;;5.00;5.00;;;;;13.72;100.00;99806.66;5038821;28;45415;-80
2022/09/29 00:08:18;;;;;;;;;6.00;4.00;;;;;13.79;100.00;99813.06;5036778;28;45477;-82
2022/09/29 00:10:44;;;;;;;;;5.00;4.00;;;;;13.79;100.00;99802.13;5038723;28;45333;-81
2022/09/29 00:13:10;;;;;;;;;6.00;4.33;;;;;13.85;100.00;99804.09;5029612;28;45480;-81
2022/09/29 00:15:35;;;;;;;;;7.67;6.00;;;;;13.81;100.00;99802.75;5031269;28;46883;-80
2022/09/29 00:18:00;;;;;;;;;6.00;6.00;;;;;13.81;100.00;99813.69;5026787;28;45437;-79
2022/09/29 00:20:26;;;;;;;;;6.67;5.00;;;;;13.72;100.00;99798.47;5036004;28;45299;-81
2022/09/29 00:22:51;;;;;;;;;4.33;4.33;;;;;13.76;100.00;99790.72;5026551;28;45327;-80
2022/09/29 00:25:17;;;;;;;;;6.00;4.33;;;;;13.80;100.00;99781.13;5051713;28;46825;-80
2022/09/29 00:27:43;;;;;;;;;6.67;4.00;;;;;13.85;100.00;99774.06;5025799;28;45236;-80
2022/09/29 00:30:09;;;;;;;;;3.67;3.00;;;;;13.86;100.00;99778.47;5036691;28;45254;-80
2022/09/29 00:32:35;;;;;;;;;5.00;4.67;;;;;13.88;100.00;99791.94;5025076;28;45168;-80
2022/09/29 00:35:00;;;;;;;;;4.33;4.00;;;;;13.85;100.00;99787.72;5025579;28;45627;-79
2022/09/29 00:37:25;;;;;;;;;4.33;4.00;;;;;13.74;100.00;99798.25;5040270;28;45800;-81
2022/09/29 00:39:52;;;;;;;;;4.00;4.00;;;;;13.77;100.00;99792.44;5037826;28;45265;-81
2022/09/29 00:42:19;;;;;;;;;6.67;5.00;;;;;13.73;100.00;99778.34;5032930;28;45496;-81
2022/09/29 00:44:59;;;;;;;;;5.00;5.00;;;;;13.83;100.00;99799.84;5029823;28;45285;-81
2022/09/29 00:47:25;;;;;;;;;6.67;5.00;;;;;13.83;100.00;99797.97;5032047;28;45391;-81
2022/09/29 00:49:57;;;;;;;;;5.67;5.00;;;;;13.84;100.00;99788.75;5032270;28;45446;-79
2022/09/29 00:52:43;;;;;;;;;6.00;6.00;;;;;13.72;100.00;99776.63;5032307;28;45330;-80
2022/09/29 00:55:19;;;;;;;;;6.67;5.00;;;;;13.79;100.00;99790.38;5029363;28;45402;-81
2022/09/29 00:57:57;;;;;;;;;4.00;4.00;;;;;13.88;100.00;99786.47;5037404;28;45265;-81
2022/09/29 01:00:23;;;;;;;;;4.00;4.00;;;;;13.68;100.00;99783.50;5035039;28;45505;-81
2022/09/29 01:03:06;;;;;;;;;5.00;4.00;;;;;13.70;100.00;99770.53;5044189;28;45523;-80
2022/09/29 01:05:36;;;;;;;;;4.33;4.33;;;;;13.83;100.00;99773.38;5049224;28;47254;-81
2022/09/29 01:08:10;;;;;;;;;3.33;3.33;;;;;13.79;100.00;99768.53;5035787;28;45336;-81
2022/09/29 01:10:39;;;;;;;;;6.00;5.33;;;;;13.78;100.00;99767.66;5035231;28;45487;-81
2022/09/29 01:13:04;;;;;;;;;6.33;4.00;;;;;13.86;100.00;99786.66;5044141;28;45477;-81
2022/09/29 01:15:31;;;;;;;;;5.33;4.33;;;;;13.84;100.00;99771.50;5035609;28;47324;-80
2022/09/29 01:17:56;;;;;;;;;6.00;6.00;;;;;13.84;100.00;99775.09;5026045;28;45263;-81
2022/09/29 01:20:23;;;;;;;;;8.33;4.67;;;;;13.75;100.00;99761.75;5034279;28;45314;-81
2022/09/29 01:23:20;;;;;;;;;4.00;4.00;;;;;13.82;100.00;99771.69;5042895;28;45507;-81
2022/09/29 01:26:20;;;;;;;;;4.33;4.00;;;;;13.86;100.00;99775.75;5034533;28;48439;-81
2022/09/29 01:29:06;;;;;;;;;5.67;5.00;;;;;13.86;100.00;99772.16;5036028;28;45617;-81
2022/09/29 01:31:34;;;;;;;;;5.00;3.00;;;;;13.82;100.00;99765.38;5035893;28;46037;-80
2022/09/29 01:34:09;;;;;;;;;0.00;0.00;;;;;13.72;100.00;99746.63;5038479;28;45352;-81
2022/09/29 01:37:17;;;;;;;;;3.00;3.00;;;;;13.84;100.00;99766.03;5053281;28;48492;-79
2022/09/29 01:39:53;;;;;;;;;3.33;3.00;;;;;13.77;100.00;99752.31;5019600;28;45909;-79
2022/09/29 01:42:25;;;;;;;;;3.00;3.00;;;;;13.75;100.00;99754.41;5051184;28;45464;-79
2022/09/29 01:45:07;;;;;;;;;3.00;3.00;;;;;13.73;100.00;99744.72;5030521;28;45269;-80
2022/09/29 01:47:41;;;;;;;;;6.00;4.67;;;;;13.76;100.00;99764.28;5033606;28;46221;-80
2022/09/29 01:50:13;;;;;;;;;5.33;3.00;;;;;13.71;100.00;99747.66;5028898;28;45505;-80
2022/09/29 01:52:47;;;;;;;;;3.00;3.00;;;;;13.68;100.00;99745.28;5037807;28;45274;-80
2022/09/29 01:55:17;;;;;;;;;3.00;3.00;;;;;13.73;100.00;99764.69;5040501;28;45232;-80
2022/09/29 01:57:49;;;;;;;;;3.00;3.00;;;;;13.74;100.00;99770.97;5032122;28;47304;-80
2022/09/29 02:00:20;;;;;;;;;2.33;2.33;;;;;13.66;100.00;99747.38;5039867;28;45433;-80
2022/09/29 02:02:57;;;;;;;;;3.00;3.00;;;;;13.82;100.00;99768.97;5036414;28;45465;-80
2022/09/29 02:05:35;;;;;;;;;5.00;4.00;;;;;13.80;100.00;99765.59;5040922;28;45380;-80
2022/09/29 02:08:39;;;;;;;;;1.67;1.67;;;;;13.62;100.00;99759.72;5053463;28;47127;-81
2022/09/29 02:11:07;;;;;;;;;3.00;2.67;;;;;13.68;100.00;99775.31;5042567;28;45475;-82
2022/09/29 02:14:02;;;;;;;;;4.33;4.00;;;;;13.59;100.00;99776.47;5026569;28;45417;-81
2022/09/29 02:16:42;;;;;;;;;4.00;4.00;;;;;13.58;100.00;99764.72;5029433;28;45516;-81
2022/09/29 02:19:30;;;;;;;;;5.33;4.67;;;;;13.70;100.00;99780.59;5041159;28;46626;-80
2022/09/29 02:21:56;;;;;;;;;4.67;4.67;;;;;13.72;100.00;99776.63;5037167;28;45629;-81
2022/09/29 02:24:23;;;;;;;;;4.33;4.33;;;;;13.73;100.00;99775.59;5031624;28;45272;-81
2022/09/29 02:26:48;;;;;;;;;5.67;5.00;;;;;13.54;100.00;99757.09;5034537;28;45406;-80
2022/09/29 02:29:15;;;;;;;;;6.67;6.67;;;;;13.50;100.00;99777.63;5037898;28;45409;-81
2022/09/29 02:31:43;;;;;;;;;5.67;4.67;;;;;13.42;100.00;99758.63;5034631;28;45481;-81
2022/09/29 02:34:12;;;;;;;;;5.00;4.00;;;;;13.62;100.00;99778.81;5040327;28;45420;-80
2022/09/29 02:36:56;;;;;;;;;6.00;4.00;;;;;13.72;100.00;99775.78;5035424;28;45405;-80
2022/09/29 02:39:39;;;;;;;;;6.67;6.00;;;;;13.73;100.00;99775.59;5026216;28;45301;-79
2022/09/29 02:42:23;;;;;;;;;4.00;4.00;;;;;13.72;100.00;99775.78;5032137;28;45871;-79
2022/09/29 02:44:57;;;;;;;;;3.67;3.67;;;;;13.78;100.00;99766.81;5032583;28;45259;-80
2022/09/29 02:47:34;;;;;;;;;3.00;3.00;;;;;13.71;100.00;99766.75;5039721;28;45466;-81
2022/09/29 02:50:35;;;;;;;;;5.33;5.33;;;;;13.70;100.00;99751.41;5046357;28;47322;-81
2022/09/29 02:53:19;;;;;;;;;4.00;4.00;;;;;13.61;100.00;99749.81;5025344;28;45471;-80
2022/09/29 02:56:02;;;;;;;;;2.00;2.00;;;;;13.69;100.00;99760.63;5032398;28;45386;-81
2022/09/29 02:58:55;;;;;;;;;4.67;4.00;;;;;13.56;100.00;99741.38;5036215;28;45334;-81
2022/09/29 03:01:21;;;;;;;;;4.00;4.00;;;;;13.61;100.00;99756.13;5030620;28;46413;-81
2022/09/29 03:03:46;;;;;;;;;3.00;3.00;;;;;13.64;100.00;99746.72;5039490;28;45295;-80
2022/09/29 03:06:12;;;;;;;;;3.00;3.00;;;;;13.72;100.00;99746.63;5037315;28;45299;-79
2022/09/29 03:08:38;;;;;;;;;6.33;2.00;;;;;13.79;100.00;99755.72;5042912;28;45509;-79
2022/09/29 03:11:03;;;;;;;;;2.00;2.00;;;;;13.78;100.00;99753.19;5031084;28;47083;-79
2022/09/29 03:13:29;;;;;;;;;2.00;2.00;;;;;13.74;100.00;99747.25;5027608;28;45248;-78
2022/09/29 03:15:54;;;;;;;;;2.00;2.00;;;;;13.78;100.00;99750.44;5034842;28;45350;-81
2022/09/29 03:18:22;;;;;;;;;2.00;2.00;;;;;13.70;100.00;99736.91;5040174;28;45358;-81
2022/09/29 03:20:47;;;;;;;;;3.00;2.00;;;;;13.59;100.00;99722.72;5034485;28;47482;-77
2022/09/29 03:23:12;;;;;;;;;4.00;3.00;;;;;13.76;100.00;99749.78;5042098;28;45431;-77
2022/09/29 03:25:38;;;;;;;;;4.33;4.33;;;;;13.67;99.90;99732.69;5038594;28;45364;-77
2022/09/29 03:28:03;;;;;;;;;2.00;2.00;;;;;13.72;100.00;99732.97;5033219;28;45459;-78
2022/09/29 03:30:28;;;;;;;;;3.00;3.00;;;;;13.83;100.00;99737.06;5038010;28;46468;-78
2022/09/29 03:32:54;;;;;;;;;2.00;2.00;;;;;13.85;100.00;99729.53;5026048;28;45323;-78
2022/09/29 03:35:19;;;;;;;;;5.00;4.00;;;;;13.87;100.00;99747.41;5042662;28;45234;-78
2022/09/29 03:37:45;;;;;;;;;3.00;3.00;;;;;13.89;100.00;99753.50;5032534;28;45279;-78
2022/09/29 03:40:10;;;;;;;;;4.67;3.67;;;;;13.87;100.00;99752.88;5028881;28;46463;-77
2022/09/29 03:42:35;;;;;;;;;2.00;2.00;;;;;13.76;100.00;99734.25;5032053;28;45428;-78
2022/09/29 03:45:01;;;;;;;;;3.67;3.67;;;;;13.86;100.00;99736.69;5045011;28;45428;-77
2022/09/29 03:47:26;;;;;;;;;4.00;4.00;;;;;13.87;99.97;99735.63;5030613;28;45559;-77
2022/09/29 03:49:51;;;;;;;;;3.00;3.00;;;;;13.83;100.00;99737.06;5040532;28;47749;-78
2022/09/29 03:52:17;;;;;;;;;4.00;4.00;;;;;13.89;99.88;99745.31;5046563;28;45280;-78
2022/09/29 03:54:43;;;;;;;;;4.00;4.00;;;;;13.84;100.00;99734.13;5028398;28;45342;-78
2022/09/29 03:57:08;;;;;;;;;5.33;1.00;;;;;13.83;100.00;99739.78;5052275;28;45267;-78
2022/09/29 03:59:34;;;;;;;;;4.33;4.00;;;;;13.76;100.00;99734.25;5029765;28;46008;-77
2022/09/29 04:01:59;;;;;;;;;6.33;4.00;;;;;13.71;100.00;99716.78;5034353;28;45412;-78
2022/09/29 04:04:25;;;;;;;;;5.00;3.00;;;;;13.66;100.00;99706.44;5055072;28;45294;-78
2022/09/29 04:06:50;;;;;;;;;4.33;4.33;;;;;13.89;100.00;99742.56;5041846;28;45584;-77
2022/09/29 04:09:15;;;;;;;;;3.67;3.67;;;;;13.96;100.00;99750.84;5041533;28;45322;-78
2022/09/29 04:11:41;;;;;;;;;4.00;4.00;;;;;13.74;100.00;99722.66;5034579;28;45322;-77
2022/09/29 04:14:06;;;;;;;;;4.67;4.67;;;;;13.84;100.00;99745.06;5040386;28;45453;-77
2022/09/29 04:16:31;;;;;;;;;5.00;3.00;;;;;13.93;100.00;99746.63;5034176;28;47651;-78
2022/09/29 04:18:57;;;;;;;;;9.00;9.00;;;;;13.82;100.00;99733.47;5034340;28;47050;-78
2022/09/29 04:21:22;;;;;;;;;5.67;4.00;;;;;13.83;100.00;99746.09;5030591;28;45436;-78
2022/09/29 04:23:48;;;;;;;;;4.00;4.00;;;;;13.71;100.00;99735.88;5028562;28;45311;-78
2022/09/29 04:26:14;;;;;;;;;8.00;4.67;;;;;13.71;100.00;99733.16;5031615;28;45593;-77
2022/09/29 04:28:40;;;;;;;;;3.67;3.67;;;;;13.75;100.00;99762.59;5026421;28;45473;-76
2022/09/29 04:31:05;;;;;;;;;4.67;3.33;;;;;13.71;100.00;99744.06;5033048;28;45333;-77
2022/09/29 04:33:31;;;;;;;;;6.00;6.00;;;;;13.83;100.00;99762.47;5026939;28;45363;-76
2022/09/29 04:35:57;;;;;;;;;5.67;5.00;;;;;13.87;100.00;99761.06;5041838;28;45390;-76
2022/09/29 04:38:23;;;;;;;;;6.00;5.00;;;;;13.70;100.00;99740.50;5037912;28;45521;-76
2022/09/29 04:40:49;;;;;;;;;5.33;5.00;;;;;13.58;100.00;99761.16;5033035;28;45384;-77
2022/09/29 04:43:14;;;;;;;;;5.00;5.00;;;;;13.47;100.00;99739.78;5028998;28;45310;-77
2022/09/29 04:45:40;;;;;;;;;5.33;5.33;;;;;13.46;100.00;99747.13;5041996;28;45532;-77
2022/09/29 04:48:06;;;;;;;;;7.00;7.00;;;;;13.53;100.00;99758.13;5029993;28;46287;-77
2022/09/29 04:50:32;;;;;;;;;6.67;6.00;;;;;13.67;100.00;99754.50;5040417;28;45655;-77
2022/09/29 04:52:57;;;;;;;;;8.33;7.33;;;;;13.81;100.00;99756.34;5036000;28;45382;-76
2022/09/29 04:55:22;;;;;;;;;15.00;9.00;;;;;13.71;100.00;99731.28;5044429;28;45673;-77
2022/09/29 04:57:48;;;;;;;;;7.00;7.00;;;;;13.88;100.00;99751.81;5029755;28;46903;-76
2022/09/29 05:00:14;;;;;;;;;6.00;6.00;;;;;13.83;100.00;99735.16;5034382;28;45381;-77
2022/09/29 05:02:39;;;;;;;;;6.33;5.00;;;;;13.93;100.00;99753.97;5031660;28;45414;-77
2022/09/29 05:05:05;;;;;;;;;4.00;4.00;;;;;13.77;100.00;99735.09;5039213;28;45413;-78
2022/09/29 05:07:31;;;;;;;;;6.33;5.00;;;;;13.94;100.00;99758.41;5031966;28;46079;-78
2022/09/29 05:09:56;;;;;;;;;6.67;5.00;;;;;13.93;100.00;99760.28;5042944;28;45383;-78
2022/09/29 05:12:21;;;;;;;;;6.00;6.00;;;;;13.79;100.00;99755.72;5033703;28;45516;-78
2022/09/29 05:14:47;;;;;;;;;5.67;5.67;;;;;13.64;100.00;99741.25;5029337;28;45299;-79
2022/09/29 05:17:12;;;;;;;;;4.67;4.67;;;;;13.52;100.00;99756.44;5026610;28;48172;-76
2022/09/29 05:19:38;;;;;;;;;5.00;5.00;;;;;13.40;100.00;99769.72;5044453;28;45452;-78
2022/09/29 05:22:03;;;;;;;;;3.33;3.33;;;;;13.51;100.00;99773.88;5032576;28;45335;-77
2022/09/29 05:24:28;;;;;;;;;5.33;5.33;;;;;13.47;100.00;99772.53;5031431;28;45424;-78
2022/09/29 05:26:54;;;;;;;;;6.00;6.00;;;;;13.49;100.00;99748.66;5025970;28;48284;-77
2022/09/29 05:29:20;;;;;;;;;7.67;5.67;;;;;13.75;100.00;99770.78;5030553;28;45445;-77
2022/09/29 05:31:45;;;;;;;;;8.00;6.00;;;;;13.67;100.00;99754.50;5031681;28;45398;-78
2022/09/29 05:34:10;;;;;;;;;3.00;3.00;;;;;13.61;100.00;99764.31;5032844;28;45433;-78
2022/09/29 05:36:36;;;;;;;;;5.00;4.00;;;;;13.59;100.00;99771.84;5040439;28;46339;-77
2022/09/29 05:39:02;;;;;;;;;6.33;4.67;;;;;13.64;100.00;99771.28;5047545;27;45401;-78
2022/09/29 05:41:27;;;;;;;;;4.00;4.00;;;;;13.76;100.00;99772.47;5036773;28;45416;-78
2022/09/29 05:43:53;;;;;;;;;7.00;4.00;;;;;13.86;100.00;99778.47;5026467;28;45295;-78
2022/09/29 05:46:20;;;;;;;;;5.00;4.00;;;;;13.86;100.00;99774.91;5029094;28;47160;-77
2022/09/29 05:48:46;;;;;;;;;8.67;5.67;;;;;13.61;100.00;99768.94;5026438;28;45350;-76
2022/09/29 05:51:15;;;;;;;;;6.67;5.00;;;;;13.82;100.00;99779.88;5030034;28;45389;-78
2022/09/29 05:53:41;;;;;;;;;8.33;5.00;;;;;13.82;100.00;99782.63;5036990;28;45266;-76
2022/09/29 05:56:09;;;;;;;;;6.33;6.33;;;;;13.77;100.00;99774.16;5030616;28;46603;-78
2022/09/29 05:58:36;;;;;;;;;7.00;7.00;;;;;13.80;100.00;99778.41;5031840;28;45189;-77
2022/09/29 06:01:16;;;;;;;;;8.00;5.00;;;;;13.64;100.00;99765.84;5033137;28;45327;-77
2022/09/29 06:03:41;;;;;;;;;7.33;6.67;;;;;13.67;100.00;99773.63;5032550;28;45332;-78
2022/09/29 06:06:09;;;;;;;;;6.00;6.00;;;;;13.60;100.00;99759.03;5032856;28;46577;-78
2022/09/29 06:08:35;;;;;;;;;8.00;6.67;;;;;13.59;100.00;99792.81;5038716;28;45376;-77
2022/09/29 06:11:21;;;;;;;;;7.67;6.00;;;;;13.64;100.00;99785.78;5038611;28;45551;-77
2022/09/29 06:13:49;;;;;;;;;8.00;7.67;;;;;13.74;100.00;99790.91;5023026;28;45297;-79
2022/09/29 06:16:16;;;;;;;;;5.33;5.33;;;;;13.90;100.00;99798.03;5031249;28;46438;-78
2022/09/29 06:18:42;;;;;;;;;10.00;8.00;;;;;13.87;100.00;99785.63;5030929;28;45359;-75
2022/09/29 06:21:17;;;;;;;;;9.00;6.67;;;;;13.88;100.00;99784.56;5032515;28;45443;-77
2022/09/29 06:23:43;;;;;;;;;7.33;7.33;;;;;13.81;100.00;99775.47;5030105;28;45425;-78
2022/09/29 06:26:11;;;;;;;;;8.33;6.00;;;;;13.75;100.00;99787.16;5033237;28;46438;-78
2022/09/29 06:28:36;;;;;;;;;6.00;6.00;;;;;13.68;100.00;99793.56;5030683;28;45260;-77
2022/09/29 06:31:07;;;;;;;;;8.00;6.67;;;;;13.54;100.00;99787.97;5034529;28;45273;-77
2022/09/29 06:33:35;;;;;;;;;7.00;7.00;;;;;13.51;100.00;99780.16;5027233;28;45170;-77
2022/09/29 06:38:48;;;;;;;;;9.00;7.67;;;;;13.57;100.00;99787.59;5035207;28;45357;-77
2022/09/29 06:41:13;;;;;;;;;7.33;7.33;;;;;13.45;100.00;99788.25;5038622;28;45402;-78
2022/09/29 06:43:39;;;;;;;;;6.00;6.00;;;;;13.39;100.00;99778.94;5028160;28;45294;-77
2022/09/29 06:46:04;;;;;;;;;8.33;8.33;;;;;13.53;100.00;99794.44;5046223;28;51662;-79
2022/09/29 06:48:30;;;;;;;;;5.67;4.00;;;;;13.48;100.00;99783.25;5030609;28;45352;-79
2022/09/29 06:50:56;;;;;;;;;10.67;8.67;;;;;13.58;100.00;99796.63;5035475;28;45421;-77
2022/09/29 06:53:22;;;;;;;;;11.00;7.00;;;;;13.51;100.00;99779.31;5033862;28;45517;-77
2022/09/29 06:55:55;;;;;;;;;9.00;8.00;;;;;13.55;100.00;99778.75;5032006;28;46519;-77
2022/09/29 06:58:23;;;;;;;;;10.67;10.00;;;;;13.36;100.00;99751.22;5033927;28;45401;-76
2022/09/29 07:00:48;;;;;;;;;11.33;8.00;;;;;13.67;100.00;99798.19;5033668;28;45459;-77
2022/09/29 07:03:14;;;;;;;;;14.00;9.00;;;;;13.57;100.00;99784.00;5042425;28;45506;-78
2022/09/29 07:05:39;;;;;;;;;15.00;11.67;;;;;13.68;100.00;99801.75;5034387;28;46670;-78
2022/09/29 07:08:05;;;;;;;;;13.67;13.00;;;;;13.75;100.00;99800.81;5031746;28;45610;-77
2022/09/29 07:10:30;;;;;;;;;12.33;8.67;;;;;13.68;100.00;99793.56;5033737;28;45457;-77
2022/09/29 07:12:56;;;;;;;;;13.67;8.00;;;;;14.01;100.00;99824.84;5028242;28;45177;-76
2022/09/29 07:15:22;;;;;;;;;13.33;10.00;;;;;14.15;100.00;99817.66;5031665;28;45413;-75
2022/09/29 07:17:51;;;;;;;;;12.67;10.67;;;;;14.03;100.00;99796.28;5026850;28;45231;-75
2022/09/29 07:20:16;;;;;;;;;11.67;11.67;;;;;14.10;100.00;99806.47;5031784;28;45472;-74
2022/09/29 07:22:45;;;;;;;;;12.67;12.67;;;;;14.15;100.00;99820.38;5043113;28;45405;-74
2022/09/29 07:25:10;;;;;;;;;13.33;13.33;;;;;14.11;100.00;99814.44;5037606;28;46344;-77
2022/09/29 07:27:35;;;;;;;;;9.67;9.67;;;;;13.91;100.00;99806.03;5026037;28;45357;-76
2022/09/29 07:30:01;;;;;;;;;10.00;7.33;;;;;14.13;100.00;99827.91;5037263;28;45736;-75
2022/09/29 07:32:26;;;;;;;;;13.00;9.33;;;;;14.07;100.00;99817.78;5029086;28;45533;-76
2022/09/29 07:34:51;;;;;;;;;8.00;8.00;;;;;14.12;100.00;99813.41;5035477;28;48556;-76
2022/09/29 07:37:17;;;;;;;;;13.33;10.67;;;;;14.28;100.00;99839.63;5057818;28;45327;-76
2022/09/29 07:39:42;;;;;;;;;10.00;9.00;;;;;14.15;100.00;99825.84;5029196;28;45400;-76
2022/09/29 07:42:08;;;;;;;;;11.67;9.00;;;;;14.23;100.00;99829.31;5039071;28;45605;-79
2022/09/29 07:44:33;;;;;;;;;11.67;9.33;;;;;14.33;100.00;99839.88;5031888;28;45539;-75
2022/09/29 07:46:59;;;;;;;;;14.33;10.33;;;;;14.38;100.00;99843.78;5046191;28;45660;-76
2022/09/29 07:49:24;;;;;;;;;13.00;9.33;;;;;14.27;100.00;99816.09;5023413;28;45354;-78
2022/09/29 07:51:50;;;;;;;;;10.33;8.00;;;;;14.40;99.01;99824.44;5032892;28;45512;-76
2022/09/29 07:54:15;;;;;;;;;12.67;12.00;;;;;14.27;98.39;99796.97;5046351;28;45727;-75
2022/09/29 07:56:40;;;;;;;;;9.67;8.33;;;;;14.49;97.98;99838.81;5032973;28;45385;-76
2022/09/29 07:59:06;;;;;;;;;10.33;9.33;;;;;14.61;97.48;99838.09;5030157;28;45354;-76
2022/09/29 08:01:32;;;;;;;;;11.00;8.00;;;;;14.75;96.77;99826.25;5032795;28;45473;-76
2022/09/29 08:03:58;;;;;;;;;12.33;12.33;;;;;14.70;96.22;99849.75;5036709;28;45510;-76
2022/09/29 08:06:25;;;;;;;;;9.00;9.00;;;;;14.81;97.18;99854.69;5032904;28;45271;-76
2022/09/29 08:08:51;;;;;;;;;7.33;4.67;;;;;14.85;95.70;99844.19;5040158;28;45196;-77
2022/09/29 08:11:19;;;;;;;;;9.00;7.33;;;;;14.71;94.55;99846.81;5040539;28;45573;-77
2022/09/29 08:13:45;;;;;;;;;14.00;12.67;;;;;14.76;94.13;99862.63;5034097;28;47501;-77
2022/09/29 08:16:13;;;;;;;;;14.00;12.00;;;;;14.76;94.41;99868.09;5030434;28;45477;-77
2022/09/29 08:18:39;;;;;;;;;9.00;9.00;;;;;14.64;95.10;99875.13;5027237;28;46655;-78
2022/09/29 08:21:05;;;;;;;;;10.33;10.33;;;;;14.80;95.44;99867.53;5031021;28;45539;-76
2022/09/29 08:23:38;;;;;;;;;12.00;10.67;;;;;14.86;94.43;99865.03;5028750;28;45865;-79
2022/09/29 08:26:06;;;;;;;;;11.33;10.00;;;;;14.90;92.25;99863.59;5034489;27;45351;-77
2022/09/29 08:28:33;;;;;;;;;13.00;9.00;;;;;15.06;93.80;99868.75;5032963;28;45175;-77
2022/09/29 08:31:06;;;;;;;;;12.00;11.00;;;;;15.09;92.92;99879.31;5031797;28;45517;-77
2022/09/29 08:33:33;;;;;;;;;16.33;11.33;;;;;15.27;93.49;99893.34;5025281;28;47084;-77
2022/09/29 08:35:59;;;;;;;;;12.00;11.67;;;;;15.14;92.36;99893.25;5038790;28;45362;-78
2022/09/29 08:38:26;;;;;;;;;16.67;15.00;;;;;15.19;92.50;99886.13;5039146;28;45385;-78
2022/09/29 08:40:55;;;;;;;;;15.67;13.00;;;;;15.18;90.78;99883.59;5040851;28;45537;-77
2022/09/29 08:43:30;;;;;;;;;14.67;11.00;;;;;15.27;90.04;99893.34;5028998;28;46170;-78
2022/09/29 08:46:01;;;;;;;;;15.67;12.67;;;;;15.20;89.16;99876.88;5041714;28;45375;-77
2022/09/29 08:48:30;;;;;;;;;11.00;8.00;;;;;15.10;90.73;99884.59;5021112;28;45448;-77
2022/09/29 08:51:01;;;;;;;;;15.67;14.33;;;;;15.22;89.66;99889.50;5030603;28;45547;-77
2022/09/29 08:53:28;;;;;;;;;12.33;10.67;;;;;15.22;88.75;99889.50;5030189;28;46317;-78
2022/09/29 08:56:01;;;;;;;;;18.33;17.33;;;;;15.40;89.03;99893.44;5030674;28;45426;-76
2022/09/29 08:58:26;;;;;;;;;12.33;10.67;;;;;15.75;86.67;99915.38;5033780;28;45368;-78
2022/09/29 09:01:04;;;;;;;;;16.00;14.33;;;;;16.14;84.24;99917.47;5050861;28;45675;-77
2022/09/29 09:04:03;;;;;;;;;12.67;12.00;;;;;16.65;81.28;99920.63;5035848;28;45314;-78
2022/09/29 09:06:47;;;;;;;;;10.33;8.67;;;;;17.16;78.34;99917.31;5029551;28;45527;-78
2022/09/29 09:09:22;;;;;;;;;8.00;8.00;;;;;17.33;78.65;99919.41;5037801;28;45376;-78
2022/09/29 09:12:07;;;;;;;;;12.00;12.00;;;;;17.28;74.82;99918.34;5055683;28;45329;-77
2022/09/29 09:15:11;;;;;;;;;13.00;13.00;;;;;17.92;76.05;99915.72;5026666;28;45600;-78
2022/09/29 09:17:55;;;;;;;;;13.00;11.00;;;;;18.14;73.13;99910.78;5035152;28;45648;-78
2022/09/29 09:20:20;;;;;;;;;9.00;9.00;;;;;18.62;72.39;99908.47;5034816;28;45506;-77
2022/09/29 09:22:52;;;;;;;;;11.00;10.00;;;;;18.63;67.46;99919.22;5028440;28;45548;-79
2022/09/29 09:25:27;;;;;;;;;7.67;6.00;;;;;18.81;68.76;99909.41;5031246;28;45983;-77
2022/09/29 09:28:03;;;;;;;;;8.33;8.33;;;;;18.58;63.18;99886.03;5021804;28;45358;-78
2022/09/29 09:30:37;;;;;;;;;7.67;6.67;;;;;19.42;63.77;99888.34;5034442;28;45469;-79
2022/09/29 09:33:12;;;;;;;;;5.00;5.00;;;;;20.20;63.21;99902.34;5046011;28;45421;-74
2022/09/29 09:35:46;;;;;;;;;6.00;6.00;;;;;20.73;61.59;99890.63;5027103;28;46301;-76
2022/09/29 09:38:17;;;;;;;;;5.00;5.00;;;;;21.17;59.39;99883.78;5037049;28;45436;-77
2022/09/29 09:40:46;;;;;;;;;7.00;7.00;;;;;21.71;55.78;99879.81;5031919;28;45503;-76
2022/09/29 09:43:26;;;;;;;;;4.67;3.33;;;;;21.30;52.66;99913.94;5036039;28;45516;-77
2022/09/29 09:46:01;;;;;;;;;3.00;3.00;;;;;20.88;55.54;99906.75;5031755;28;45433;-76
2022/09/29 09:48:32;;;;;;;;;4.33;3.67;;;;;21.41;56.08;99914.16;5035861;28;45475;-75
2022/09/29 09:51:10;;;;;;;;;5.00;5.00;;;;;21.30;51.80;99916.69;5033842;28;45294;-77
2022/09/29 09:53:41;;;;;;;;;8.00;5.00;;;;;20.92;52.46;99921.75;5033735;28;45237;-76
2022/09/29 09:56:19;;;;;;;;;8.33;8.33;;;;;20.26;53.96;99916.28;5040186;28;46180;-75
2022/09/29 09:59:07;;;;;;;;;9.00;9.00;;;;;19.29;57.45;99913.25;5037020;28;45473;-73
2022/09/29 10:01:33;;;;;;;;;10.00;9.33;;;;;19.31;58.46;99922.13;5033755;28;45447;-75
2022/09/29 10:03:59;;;;;;;;;9.67;9.67;;;;;19.60;58.98;99911.50;5039248;28;45410;-75
2022/09/29 10:06:25;;;;;;;;;7.33;7.00;;;;;19.27;58.09;99901.63;5041382;28;45485;-75
2022/09/29 10:08:50;;;;;;;;;13.67;11.33;;;;;18.88;60.94;99922.03;5041164;28;45572;-74
2022/09/29 10:11:25;;;;;;;;;4.00;0.67;;;;;18.33;64.74;99931.88;5051589;28;45542;-75
2022/09/29 10:13:59;;;;;;;;;12.67;12.33;;;;;18.17;67.31;99927.69;5035431;28;45532;-74
2022/09/29 10:16:30;;;;;;;;;12.67;12.67;;;;;18.29;67.02;99934.19;5030989;28;45425;-74
2022/09/29 10:18:56;;;;;;;;;10.33;9.33;;;;;18.35;67.63;99924.22;5031927;28;45444;-75
2022/09/29 10:21:35;;;;;;;;;12.33;11.33;;;;;18.38;66.75;99920.19;5031275;28;45348;-76
2022/09/29 10:24:00;;;;;;;;;11.00;11.00;;;;;17.98;68.73;99931.34;5030494;28;45317;-75
2022/09/29 10:26:32;;;;;;;;;14.67;12.67;;;;;17.58;68.90;99925.09;5029831;28;46650;-75
2022/09/29 10:29:01;;;;;;;;;14.00;13.67;;;;;17.20;72.86;99952.34;5038078;28;45263;-75
2022/09/29 10:31:28;;;;;;;;;20.67;14.33;;;;;17.40;73.33;99955.09;5030246;28;45386;-74
2022/09/29 10:33:57;;;;;;;;;17.67;15.00;;;;;17.49;74.90;99956.56;5047627;28;45581;-74
2022/09/29 10:36:25;;;;;;;;;6.00;6.00;;;;;17.19;76.57;99941.56;5032286;28;46757;-75
2022/09/29 10:38:52;;;;;;;;;18.67;18.67;;;;;17.13;77.52;99946.84;5027799;28;45271;-76
2022/09/29 10:41:21;;;;;;;;;20.33;18.67;;;;;17.10;77.34;99955.50;5038155;28;45472;-73
2022/09/29 10:43:48;;;;;;;;;18.00;16.67;;;;;16.74;81.70;99966.00;5036366;28;45322;-74
2022/09/29 10:46:36;;;;;;;;;18.33;16.33;;;;;16.68;85.24;99970.41;5037255;28;45733;-74
2022/09/29 10:49:18;;;;;;;;;18.00;18.00;;;;;16.59;87.81;99976.25;5023414;28;45484;-75
2022/09/29 10:52:03;;;;;;;;;26.25;24.00;;;;;16.58;90.10;99977.31;5036236;28;45365;-74
2022/09/29 10:54:35;;;;;;;;;21.33;20.67;;;;;16.52;89.97;99975.38;5032199;28;45402;-75
2022/09/29 10:57:13;;;;;;;;;16.33;16.33;;;;;16.44;87.65;99973.66;5029191;28;47259;-75
2022/09/29 10:59:49;;;;;;;;;11.33;10.00;;;;;16.37;87.58;99967.31;5037470;28;45492;-75
2022/09/29 11:02:38;;;;;;;;;15.33;15.33;;;;;16.30;90.39;99978.25;5028829;28;45326;-74
2022/09/29 11:05:16;;;;;;;;;9.67;9.67;;;;;16.17;90.32;99975.47;5041668;28;45434;-75
2022/09/29 11:07:49;;;;;;;;;12.00;12.00;;;;;16.17;90.10;99982.84;5051740;28;46761;-74
2022/09/29 11:10:34;;;;;;;;;16.33;13.00;;;;;16.22;90.59;99994.03;5030658;28;45436;-76
2022/09/29 11:13:23;;;;;;;;;15.00;14.67;;;;;16.38;93.27;100001.06;5044570;28;45482;-75
2022/09/29 11:15:49;;;;;;;;;15.00;13.67;;;;;16.36;89.77;99984.84;5026994;28;45473;-75
2022/09/29 11:18:20;;;;;;;;;13.00;13.00;;;;;16.38;88.12;99996.41;5024676;28;47287;-74
2022/09/29 11:20:59;;;;;;;;;23.00;18.00;;;;;16.26;91.70;100009.03;5029310;28;45477;-75
2022/09/29 11:23:40;;;;;;;;;18.00;14.00;;;;;16.28;91.91;100001.47;5041991;28;45315;-75
2022/09/29 11:26:35;;;;;;;;;14.33;13.00;;;;;16.34;90.35;100000.63;5031736;28;45465;-75
2022/09/29 11:29:24;;;;;;;;;15.33;13.00;;;;;16.46;89.15;100006.38;5031828;28;46212;-74
2022/09/29 11:31:59;;;;;;;;;16.67;12.67;;;;;16.43;91.44;100009.53;5030895;28;45252;-75
2022/09/29 11:34:33;;;;;;;;;16.33;13.67;;;;;16.53;90.25;100005.34;5033889;28;45264;-73
2022/09/29 11:37:10;;;;;;;;;15.67;15.00;;;;;16.66;88.66;100013.66;5029455;28;45354;-73
2022/09/29 11:40:00;;;;;;;;;14.33;14.33;;;;;16.75;87.97;100011.56;5025765;28;45581;-74
2022/09/29 11:42:39;;;;;;;;;20.33;20.33;;;;;16.82;90.14;100023.41;5041428;28;45173;-84